sensor_id;sensor_type;location;lat;lon;timestamp;pressure;altitude;pressure_sealevel;temperature;humidity
56038;BME280;41907;47.848;9.000;2023-04-07T00:00:34;95797.75;;;6.24;100.00
56038;BME280;41907;47.848;9.000;2023-04-07T00:02:59;95791.19;;;6.22;100.00
56038;BME280;41907;47.848;9.000;2023-04-07T00:05:26;95791.34;;;6.02;100.00
56038;BME280;41907;47.848;9.000;2023-04-07T00:07:51;95787.31;;;6.04;100.00
56038;BME280;41907;47.848;9.000;2023-04-07T00:10:16;95788.28;;;6.18;100.00
56038;BME280;41907;47.848;9.000;2023-04-07T00:12:41;95779.13;;;6.34;100.00
56038;BME280;41907;47.848;9.000;2023-04-07T00:15:07;95776.66;;;6.43;100.00
56038;BME280;41907;47.848;9.000;2023-04-07T00:17:32;95768.97;;;6.47;100.00
56038;BME280;41907;47.848;9.000;2023-04-07T00:19:57;95757.00;;;6.49;100.00
56038;BME280;41907;47.848;9.000;2023-04-07T00:22:23;95761.47;;;6.54;100.00
56038;BME280;41907;47.848;9.000;2023-04-07T00:24:48;95757.19;;;6.58;100.00
56038;BME280;41907;47.848;9.000;2023-04-07T00:27:13;95747.38;;;6.58;99.08
56038;BME280;41907;47.848;9.000;2023-04-07T00:29:39;95746.53;;;6.63;98.42
56038;BME280;41907;47.848;9.000;2023-04-07T00:32:04;95748.63;;;6.66;97.99
56038;BME280;41907;47.848;9.000;2023-04-07T00:34:29;95741.19;;;6.68;98.64
56038;BME280;41907;47.848;9.000;2023-04-07T00:36:55;95734.59;;;6.65;99.05
56038;BME280;41907;47.848;9.000;2023-04-07T00:39:20;95727.41;;;6.66;97.90
56038;BME280;41907;47.848;9.000;2023-04-07T00:41:45;95733.00;;;6.64;98.97
56038;BME280;41907;47.848;9.000;2023-04-07T00:44:11;95721.31;;;6.65;98.09
56038;BME280;41907;47.848;9.000;2023-04-07T00:46:36;95711.06;;;6.59;95.94
56038;BME280;41907;47.848;9.000;2023-04-07T00:49:02;95708.63;;;6.62;97.60
56038;BME280;41907;47.848;9.000;2023-04-07T00:51:27;95703.91;;;6.59;100.00
56038;BME280;41907;47.848;9.000;2023-04-07T00:53:53;95697.69;;;6.45;100.00
56038;BME280;41907;47.848;9.000;2023-04-07T00:56:18;95694.94;;;6.31;100.00
56038;BME280;41907;47.848;9.000;2023-04-07T00:58:44;95692.75;;;6.39;100.00
56038;BME280;41907;47.848;9.000;2023-04-07T01:01:18;95681.13;;;6.34;100.00
56038;BME280;41907;47.848;9.000;2023-04-07T01:03:51;95685.88;;;6.38;100.00
56038;BME280;41907;47.848;9.000;2023-04-07T01:06:17;95680.69;;;6.27;100.00
56038;BME280;41907;47.848;9.000;2023-04-07T01:08:56;95683.31;;;6.27;100.00
56038;BME280;41907;47.848;9.000;2023-04-07T01:13:53;95677.13;;;6.37;100.00
56038;BME280;41907;47.848;9.000;2023-04-07T01:16:22;95676.63;;;6.35;100.00
56038;BME280;41907;47.848;9.000;2023-04-07T01:18:48;95673.97;;;6.11;99.74
56038;BME280;41907;47.848;9.000;2023-04-07T01:21:16;95670.75;;;6.14;99.32
56038;BME280;41907;47.848;9.000;2023-04-07T01:31:15;95657.56;;;6.09;98.76
56038;BME280;41907;47.848;9.000;2023-04-07T01:33:42;95655.47;;;6.06;98.69
56038;BME280;41907;47.848;9.000;2023-04-07T01:36:08;95656.94;;;6.17;99.03
56038;BME280;41907;47.848;9.000;2023-04-07T01:38:33;95660.78;;;6.30;97.77
56038;BME280;41907;47.848;9.000;2023-04-07T01:40:59;95646.97;;;6.33;96.89
56038;BME280;41907;47.848;9.000;2023-04-07T01:43:24;95653.00;;;6.39;97.25
56038;BME280;41907;47.848;9.000;2023-04-07T01:45:51;95652.66;;;6.45;98.64
56038;BME280;41907;47.848;9.000;2023-04-07T01:48:18;95648.88;;;6.51;99.67
56038;BME280;41907;47.848;9.000;2023-04-07T01:50:43;95645.22;;;6.47;98.10
56038;BME280;41907;47.848;9.000;2023-04-07T01:53:09;95648.06;;;6.32;97.13
56038;BME280;41907;47.848;9.000;2023-04-07T01:55:35;95643.59;;;6.27;98.76
56038;BME280;41907;47.848;9.000;2023-04-07T01:58:04;95647.16;;;6.42;99.51
56038;BME280;41907;47.848;9.000;2023-04-07T02:00:30;95644.00;;;6.40;99.88
56038;BME280;41907;47.848;9.000;2023-04-07T02:02:56;95647.91;;;6.42;99.13
56038;BME280;41907;47.848;9.000;2023-04-07T02:05:23;95648.38;;;6.49;100.00
56038;BME280;41907;47.848;9.000;2023-04-07T02:07:49;95648.13;;;6.51;100.00
56038;BME280;41907;47.848;9.000;2023-04-07T02:10:16;95645.22;;;6.47;100.00
56038;BME280;41907;47.848;9.000;2023-04-07T02:12:44;95640.16;;;6.51;100.00
56038;BME280;41907;47.848;9.000;2023-04-07T02:15:10;95640.16;;;6.51;99.73
56038;BME280;41907;47.848;9.000;2023-04-07T02:17:37;95639.38;;;6.50;100.00
56038;BME280;41907;47.848;9.000;2023-04-07T02:20:04;95630.91;;;6.48;100.00
56038;BME280;41907;47.848;9.000;2023-04-07T02:22:30;95634.63;;;6.47;100.00
56038;BME280;41907;47.848;9.000;2023-04-07T02:24:56;95635.19;;;6.44;100.00
56038;BME280;41907;47.848;9.000;2023-04-07T02:27:21;95635.25;;;6.39;100.00
56038;BME280;41907;47.848;9.000;2023-04-07T02:29:46;95636.84;;;6.40;100.00
56038;BME280;41907;47.848;9.000;2023-04-07T02:32:11;95631.53;;;6.40;100.00
56038;BME280;41907;47.848;9.000;2023-04-07T02:34:36;95632.66;;;6.34;100.00
56038;BME280;41907;47.848;9.000;2023-04-07T02:37:02;95627.34;;;6.34;100.00
56038;BME280;41907;47.848;9.000;2023-04-07T02:39:27;95630.88;;;6.29;100.00
56038;BME280;41907;47.848;9.000;2023-04-07T02:41:52;95626.09;;;6.31;100.00
56038;BME280;41907;47.848;9.000;2023-04-07T02:44:17;95619.63;;;6.14;100.00
56038;BME280;41907;47.848;9.000;2023-04-07T02:46:42;95614.34;;;6.14;100.00
56038;BME280;41907;47.848;9.000;2023-04-07T02:49:08;95614.03;;;6.20;100.00
56038;BME280;41907;47.848;9.000;2023-04-07T02:51:33;95607.66;;;6.21;100.00
56038;BME280;41907;47.848;9.000;2023-04-07T02:53:58;95603.94;;;6.22;100.00
56038;BME280;41907;47.848;9.000;2023-04-07T02:56:23;95604.38;;;6.29;100.00
56038;BME280;41907;47.848;9.000;2023-04-07T02:58:48;95601.78;;;6.24;100.00
56038;BME280;41907;47.848;9.000;2023-04-07T03:01:14;95600.94;;;6.29;100.00
56038;BME280;41907;47.848;9.000;2023-04-07T03:03:39;95599.38;;;6.28;100.00
56038;BME280;41907;47.848;9.000;2023-04-07T03:06:06;95598.06;;;6.25;100.00
56038;BME280;41907;47.848;9.000;2023-04-07T03:08:31;95602.56;;;6.25;100.00
56038;BME280;41907;47.848;9.000;2023-04-07T03:10:57;95597.88;;;6.22;100.00
56038;BME280;41907;47.848;9.000;2023-04-07T03:13:22;95594.13;;;6.23;100.00
56038;BME280;41907;47.848;9.000;2023-04-07T03:15:47;95591.25;;;6.19;100.00
56038;BME280;41907;47.848;9.000;2023-04-07T03:18:12;95589.16;;;6.16;100.00
56038;BME280;41907;47.848;9.000;2023-04-07T03:20:38;95584.84;;;6.02;100.00
56038;BME280;41907;47.848;9.000;2023-04-07T03:23:05;95581.63;;;6.05;100.00
56038;BME280;41907;47.848;9.000;2023-04-07T03:25:31;95571.44;;;5.93;100.00
56038;BME280;41907;47.848;9.000;2023-04-07T03:27:56;95573.81;;;5.66;100.00
56038;BME280;41907;47.848;9.000;2023-04-07T03:30:21;95563.34;;;5.55;100.00
56038;BME280;41907;47.848;9.000;2023-04-07T03:32:47;95559.00;;;5.36;100.00
56038;BME280;41907;47.848;9.000;2023-04-07T03:35:12;95562.53;;;5.26;100.00
56038;BME280;41907;47.848;9.000;2023-04-07T03:37:37;95555.44;;;5.21;100.00
56038;BME280;41907;47.848;9.000;2023-04-07T03:40:02;95553.47;;;5.03;100.00
56038;BME280;41907;47.848;9.000;2023-04-07T03:42:27;95548.25;;;4.93;100.00
56038;BME280;41907;47.848;9.000;2023-04-07T03:44:53;95545.94;;;4.86;100.00
56038;BME280;41907;47.848;9.000;2023-04-07T03:47:18;95550.94;;;4.88;100.00
56038;BME280;41907;47.848;9.000;2023-04-07T03:49:43;95553.81;;;4.92;100.00
56038;BME280;41907;47.848;9.000;2023-04-07T03:52:08;95542.75;;;4.90;100.00
56038;BME280;41907;47.848;9.000;2023-04-07T03:54:34;95544.88;;;4.82;100.00
56038;BME280;41907;47.848;9.000;2023-04-07T03:56:59;95544.94;;;4.72;100.00
56038;BME280;41907;47.848;9.000;2023-04-07T03:59:25;95543.31;;;4.81;100.00
56038;BME280;41907;47.848;9.000;2023-04-07T04:01:50;95531.47;;;4.79;100.00
56038;BME280;41907;47.848;9.000;2023-04-07T04:04:16;95533.59;;;4.72;100.00
56038;BME280;41907;47.848;9.000;2023-04-07T04:06:41;95535.38;;;4.81;100.00
56038;BME280;41907;47.848;9.000;2023-04-07T04:09:06;95542.56;;;5.10;100.00
56038;BME280;41907;47.848;9.000;2023-04-07T04:11:31;95533.00;;;5.19;100.00
56038;BME280;41907;47.848;9.000;2023-04-07T04:13:57;95535.63;;;5.19;100.00
56038;BME280;41907;47.848;9.000;2023-04-07T04:16:22;95526.94;;;5.13;100.00
56038;BME280;41907;47.848;9.000;2023-04-07T04:18:47;95525.06;;;5.19;100.00
56038;BME280;41907;47.848;9.000;2023-04-07T04:21:12;95528.91;;;5.32;100.00
56038;BME280;41907;47.848;9.000;2023-04-07T04:23:37;95535.91;;;5.46;100.00
56038;BME280;41907;47.848;9.000;2023-04-07T04:26:03;95531.63;;;5.50;100.00
56038;BME280;41907;47.848;9.000;2023-04-07T04:28:28;95533.19;;;5.51;100.00
56038;BME280;41907;47.848;9.000;2023-04-07T04:30:53;95537.16;;;5.54;100.00
56038;BME280;41907;47.848;9.000;2023-04-07T04:33:19;95532.69;;;5.49;100.00
56038;BME280;41907;47.848;9.000;2023-04-07T04:35:45;95543.28;;;5.49;100.00
56038;BME280;41907;47.848;9.000;2023-04-07T04:38:10;95539.28;;;5.52;100.00
56038;BME280;41907;47.848;9.000;2023-04-07T04:40:35;95543.75;;;5.56;100.00
56038;BME280;41907;47.848;9.000;2023-04-07T04:43:00;95541.13;;;5.51;100.00
56038;BME280;41907;47.848;9.000;2023-04-07T04:45:30;95541.66;;;5.53;100.00
56038;BME280;41907;47.848;9.000;2023-04-07T04:47:56;95536.13;;;5.50;100.00
56038;BME280;41907;47.848;9.000;2023-04-07T04:50:21;95544.34;;;5.48;100.00
56038;BME280;41907;47.848;9.000;2023-04-07T04:52:46;95531.97;;;5.44;100.00
56038;BME280;41907;47.848;9.000;2023-04-07T04:55:11;95532.84;;;5.34;100.00
56038;BME280;41907;47.848;9.000;2023-04-07T04:57:36;95538.13;;;5.34;100.00
56038;BME280;41907;47.848;9.000;2023-04-07T05:00:02;95535.53;;;5.29;100.00
56038;BME280;41907;47.848;9.000;2023-04-07T05:02:28;95532.69;;;5.20;100.00
56038;BME280;41907;47.848;9.000;2023-04-07T05:04:53;95534.06;;;5.18;100.00
56038;BME280;41907;47.848;9.000;2023-04-07T05:07:18;95532.47;;;5.17;100.00
56038;BME280;41907;47.848;9.000;2023-04-07T05:09:44;95530.09;;;5.15;100.00
56038;BME280;41907;47.848;9.000;2023-04-07T05:12:09;95526.47;;;5.06;100.00
56038;BME280;41907;47.848;9.000;2023-04-07T05:14:34;95525.78;;;4.96;100.00
56038;BME280;41907;47.848;9.000;2023-04-07T05:17:00;95527.25;;;4.73;100.00
56038;BME280;41907;47.848;9.000;2023-04-07T05:19:25;95522.50;;;4.75;100.00
56038;BME280;41907;47.848;9.000;2023-04-07T05:21:53;95520.47;;;4.62;100.00
56038;BME280;41907;47.848;9.000;2023-04-07T05:24:18;95517.25;;;4.70;100.00
56038;BME280;41907;47.848;9.000;2023-04-07T05:26:43;95518.78;;;4.76;100.00
56038;BME280;41907;47.848;9.000;2023-04-07T05:29:09;95510.31;;;4.79;100.00
56038;BME280;41907;47.848;9.000;2023-04-07T05:31:34;95509.59;;;5.02;100.00
56038;BME280;41907;47.848;9.000;2023-04-07T05:34:01;95511.22;;;4.98;100.00
56038;BME280;41907;47.848;9.000;2023-04-07T05:36:26;95514.00;;;5.12;100.00
56038;BME280;41907;47.848;9.000;2023-04-07T05:38:51;95507.00;;;5.26;100.00
56038;BME280;41907;47.848;9.000;2023-04-07T05:41:16;95507.38;;;5.43;100.00
56038;BME280;41907;47.848;9.000;2023-04-07T05:43:42;95517.75;;;5.64;100.00
56038;BME280;41907;47.848;9.000;2023-04-07T05:46:07;95511.94;;;5.61;100.00
56038;BME280;41907;47.848;9.000;2023-04-07T05:48:32;95507.78;;;5.55;100.00
56038;BME280;41907;47.848;9.000;2023-04-07T05:50:58;95511.44;;;5.59;100.00
56038;BME280;41907;47.848;9.000;2023-04-07T05:53:23;95510.81;;;5.68;100.00
56038;BME280;41907;47.848;9.000;2023-04-07T05:55:48;95511.44;;;5.59;100.00
56038;BME280;41907;47.848;9.000;2023-04-07T05:58:13;95507.81;;;5.50;100.00
56038;BME280;41907;47.848;9.000;2023-04-07T06:00:39;95500.31;;;5.57;100.00
56038;BME280;41907;47.848;9.000;2023-04-07T06:03:04;95500.63;;;5.80;100.00
56038;BME280;41907;47.848;9.000;2023-04-07T06:05:30;95506.69;;;5.80;100.00
56038;BME280;41907;47.848;9.000;2023-04-07T06:07:55;95495.81;;;6.29;100.00
56038;BME280;41907;47.848;9.000;2023-04-07T06:10:20;95498.81;;;6.42;100.00
56038;BME280;41907;47.848;9.000;2023-04-07T06:12:45;95506.25;;;6.77;100.00
56038;BME280;41907;47.848;9.000;2023-04-07T06:15:11;95509.22;;;6.89;99.40
56038;BME280;41907;47.848;9.000;2023-04-07T06:17:36;95516.97;;;6.86;98.86
56038;BME280;41907;47.848;9.000;2023-04-07T06:20:01;95517.47;;;7.20;99.00
56038;BME280;41907;47.848;9.000;2023-04-07T06:22:26;95517.44;;;8.48;91.16
56038;BME280;41907;47.848;9.000;2023-04-07T06:24:52;95520.91;;;8.49;91.31
56038;BME280;41907;47.848;9.000;2023-04-07T06:27:17;95518.81;;;8.82;86.99
56038;BME280;41907;47.848;9.000;2023-04-07T06:29:42;95514.41;;;8.77;85.46
56038;BME280;41907;47.848;9.000;2023-04-07T06:32:07;95522.69;;;8.40;87.52
56038;BME280;41907;47.848;9.000;2023-04-07T06:34:33;95528.47;;;8.28;88.47
56038;BME280;41907;47.848;9.000;2023-04-07T06:36:58;95529.34;;;8.23;89.55
56038;BME280;41907;47.848;9.000;2023-04-07T06:39:24;95526.03;;;7.91;91.24
56038;BME280;41907;47.848;9.000;2023-04-07T06:41:50;95533.31;;;7.99;90.90
56038;BME280;41907;47.848;9.000;2023-04-07T06:44:15;95536.34;;;8.06;91.52
56038;BME280;41907;47.848;9.000;2023-04-07T06:46:41;95531.84;;;8.06;91.47
56038;BME280;41907;47.848;9.000;2023-04-07T06:49:06;95531.22;;;8.23;90.45
56038;BME280;41907;47.848;9.000;2023-04-07T06:51:31;95517.38;;;9.20;84.99
56038;BME280;41907;47.848;9.000;2023-04-07T06:53:57;95518.22;;;8.85;85.89
56038;BME280;41907;47.848;9.000;2023-04-07T06:56:22;95521.00;;;8.80;86.32
56038;BME280;41907;47.848;9.000;2023-04-07T06:58:47;95519.50;;;9.10;85.51
56038;BME280;41907;47.848;9.000;2023-04-07T07:01:13;95514.84;;;8.93;84.43
56038;BME280;41907;47.848;9.000;2023-04-07T07:03:38;95509.91;;;10.50;78.79
56038;BME280;41907;47.848;9.000;2023-04-07T07:06:03;95510.09;;;10.62;75.51
56038;BME280;41907;47.848;9.000;2023-04-07T07:08:29;95499.47;;;11.51;72.48
56038;BME280;41907;47.848;9.000;2023-04-07T07:10:54;95508.06;;;11.83;69.03
56038;BME280;41907;47.848;9.000;2023-04-07T07:13:21;95505.47;;;11.57;69.35
56038;BME280;41907;47.848;9.000;2023-04-07T07:15:47;95501.91;;;11.18;70.13
56038;BME280;41907;47.848;9.000;2023-04-07T07:18:12;95505.38;;;10.76;71.49
56038;BME280;41907;47.848;9.000;2023-04-07T07:20:38;95506.16;;;10.51;72.54
56038;BME280;41907;47.848;9.000;2023-04-07T07:23:03;95507.69;;;10.26;75.13
56038;BME280;41907;47.848;9.000;2023-04-07T07:25:28;95512.09;;;9.91;76.34
56038;BME280;41907;47.848;9.000;2023-04-07T07:27:53;95508.91;;;9.72;77.03
56038;BME280;41907;47.848;9.000;2023-04-07T07:30:22;95510.91;;;9.66;76.21
56038;BME280;41907;47.848;9.000;2023-04-07T07:32:48;95506.16;;;9.63;77.33
56038;BME280;41907;47.848;9.000;2023-04-07T07:35:13;95511.59;;;9.80;76.90
56038;BME280;41907;47.848;9.000;2023-04-07T07:37:39;95519.94;;;9.87;76.14
56038;BME280;41907;47.848;9.000;2023-04-07T07:40:05;95514.63;;;9.96;77.04
56038;BME280;41907;47.848;9.000;2023-04-07T07:42:30;95509.81;;;10.06;77.79
56038;BME280;41907;47.848;9.000;2023-04-07T07:44:56;95516.13;;;10.19;77.51
56038;BME280;41907;47.848;9.000;2023-04-07T07:47:21;95505.38;;;10.50;75.70
56038;BME280;41907;47.848;9.000;2023-04-07T07:49:47;95510.41;;;11.21;72.03
56038;BME280;41907;47.848;9.000;2023-04-07T07:52:12;95511.25;;;12.44;65.41
56038;BME280;41907;47.848;9.000;2023-04-07T07:54:37;95506.06;;;14.24;59.77
56038;BME280;41907;47.848;9.000;2023-04-07T07:57:02;95505.88;;;14.94;53.57
56038;BME280;41907;47.848;9.000;2023-04-07T07:59:28;95509.94;;;14.75;53.25
56038;BME280;41907;47.848;9.000;2023-04-07T08:01:53;95508.63;;;14.57;54.16
56038;BME280;41907;47.848;9.000;2023-04-07T08:04:18;95507.50;;;13.97;52.42
56038;BME280;41907;47.848;9.000;2023-04-07T08:06:44;95507.50;;;13.40;56.45
56038;BME280;41907;47.848;9.000;2023-04-07T08:09:09;95510.75;;;12.92;56.40
56038;BME280;41907;47.848;9.000;2023-04-07T08:11:35;95516.41;;;12.70;56.45
56038;BME280;41907;47.848;9.000;2023-04-07T08:14:00;95518.94;;;12.45;57.78
56038;BME280;41907;47.848;9.000;2023-04-07T08:16:25;95531.75;;;12.31;60.43
56038;BME280;41907;47.848;9.000;2023-04-07T08:18:51;95531.41;;;12.03;59.29
56038;BME280;41907;47.848;9.000;2023-04-07T08:21:16;95526.69;;;12.00;59.85
56038;BME280;41907;47.848;9.000;2023-04-07T08:23:41;95516.13;;;11.66;60.49
56038;BME280;41907;47.848;9.000;2023-04-07T08:26:07;95521.97;;;11.42;61.53
56038;BME280;41907;47.848;9.000;2023-04-07T08:28:32;95526.09;;;11.39;62.51
56038;BME280;41907;47.848;9.000;2023-04-07T08:30:57;95526.69;;;11.45;63.13
56038;BME280;41907;47.848;9.000;2023-04-07T08:33:23;95522.66;;;11.13;63.35
56038;BME280;41907;47.848;9.000;2023-04-07T08:35:49;95521.72;;;11.00;62.51
56038;BME280;41907;47.848;9.000;2023-04-07T08:38:14;95527.97;;;11.04;63.97
56038;BME280;41907;47.848;9.000;2023-04-07T08:40:40;95528.31;;;11.03;64.81
56038;BME280;41907;47.848;9.000;2023-04-07T08:43:07;95517.97;;;11.01;62.65
56038;BME280;41907;47.848;9.000;2023-04-07T08:45:32;95519.06;;;10.92;62.96
56038;BME280;41907;47.848;9.000;2023-04-07T08:47:58;95523.91;;;10.72;62.59
56038;BME280;41907;47.848;9.000;2023-04-07T08:50:25;95520.94;;;10.65;63.67
56038;BME280;41907;47.848;9.000;2023-04-07T08:52:54;95521.06;;;10.60;65.87
56038;BME280;41907;47.848;9.000;2023-04-07T08:55:20;95524.19;;;10.45;65.27
56038;BME280;41907;47.848;9.000;2023-04-07T08:57:45;95516.34;;;10.40;64.80
56038;BME280;41907;47.848;9.000;2023-04-07T09:00:11;95521.53;;;10.45;64.56
56038;BME280;41907;47.848;9.000;2023-04-07T09:02:46;95522.34;;;10.54;64.21
56038;BME280;41907;47.848;9.000;2023-04-07T09:05:13;95522.63;;;10.53;65.06
56038;BME280;41907;47.848;9.000;2023-04-07T09:07:38;95521.66;;;10.40;65.05
56038;BME280;41907;47.848;9.000;2023-04-07T09:10:10;95522.63;;;10.53;63.82
56038;BME280;41907;47.848;9.000;2023-04-07T09:12:35;95519.19;;;10.52;62.96
56038;BME280;41907;47.848;9.000;2023-04-07T09:15:00;95523.44;;;10.53;62.28
56038;BME280;41907;47.848;9.000;2023-04-07T09:17:26;95519.00;;;10.49;60.38
56038;BME280;41907;47.848;9.000;2023-04-07T09:19:52;95521.22;;;10.47;60.83
56038;BME280;41907;47.848;9.000;2023-04-07T09:22:32;95515.59;;;10.57;60.77
56038;BME280;41907;47.848;9.000;2023-04-07T09:25:08;95519.97;;;10.61;61.17
56038;BME280;41907;47.848;9.000;2023-04-07T09:27:33;95518.41;;;10.69;63.07
56038;BME280;41907;47.848;9.000;2023-04-07T09:30:09;95518.09;;;10.79;61.73
56038;BME280;41907;47.848;9.000;2023-04-07T09:32:35;95531.13;;;10.80;61.45
56038;BME280;41907;47.848;9.000;2023-04-07T09:35:05;95525.66;;;10.94;61.08
56038;BME280;41907;47.848;9.000;2023-04-07T09:37:31;95519.22;;;11.04;58.74
56038;BME280;41907;47.848;9.000;2023-04-07T09:39:56;95510.41;;;10.86;59.15
56038;BME280;41907;47.848;9.000;2023-04-07T09:42:21;95526.75;;;11.02;58.89
56038;BME280;41907;47.848;9.000;2023-04-07T09:44:47;95517.63;;;11.11;58.63
56038;BME280;41907;47.848;9.000;2023-04-07T09:47:12;95520.78;;;11.22;59.67
56038;BME280;41907;47.848;9.000;2023-04-07T09:49:50;95518.88;;;11.05;58.17
56038;BME280;41907;47.848;9.000;2023-04-07T09:52:18;95512.75;;;10.96;59.21
56038;BME280;41907;47.848;9.000;2023-04-07T09:54:44;95520.31;;;11.11;60.57
56038;BME280;41907;47.848;9.000;2023-04-07T09:57:11;95512.25;;;11.37;62.32
56038;BME280;41907;47.848;9.000;2023-04-07T09:59:37;95518.31;;;11.64;63.18
56038;BME280;41907;47.848;9.000;2023-04-07T10:02:03;95517.41;;;11.60;63.49
56038;BME280;41907;47.848;9.000;2023-04-07T10:04:28;95515.16;;;11.79;63.63
56038;BME280;41907;47.848;9.000;2023-04-07T10:06:54;95521.63;;;11.52;63.50
56038;BME280;41907;47.848;9.000;2023-04-07T10:09:23;95517.69;;;11.75;63.48
56038;BME280;41907;47.848;9.000;2023-04-07T10:11:49;95518.56;;;11.97;62.36
56038;BME280;41907;47.848;9.000;2023-04-07T10:14:15;95521.00;;;12.10;61.86
56038;BME280;41907;47.848;9.000;2023-04-07T10:16:41;95526.50;;;12.43;60.05
56038;BME280;41907;47.848;9.000;2023-04-07T10:19:07;95525.59;;;12.60;60.35
56038;BME280;41907;47.848;9.000;2023-04-07T10:21:36;95525.16;;;12.79;57.32
56038;BME280;41907;47.848;9.000;2023-04-07T10:24:04;95533.31;;;12.32;58.60
56038;BME280;41907;47.848;9.000;2023-04-07T10:26:33;95532.53;;;12.32;55.47
56038;BME280;41907;47.848;9.000;2023-04-07T10:29:01;95525.47;;;12.27;56.11
56038;BME280;41907;47.848;9.000;2023-04-07T10:31:28;95527.31;;;12.06;57.07
56038;BME280;41907;47.848;9.000;2023-04-07T10:33:53;95530.81;;;12.27;56.34
56038;BME280;41907;47.848;9.000;2023-04-07T10:36:20;95535.78;;;12.37;58.19
56038;BME280;41907;47.848;9.000;2023-04-07T10:41:30;95529.91;;;12.52;56.77
56038;BME280;41907;47.848;9.000;2023-04-07T10:43:55;95542.13;;;12.62;58.16
56038;BME280;41907;47.848;9.000;2023-04-07T10:46:21;95544.53;;;12.76;57.39
56038;BME280;41907;47.848;9.000;2023-04-07T10:49:06;95533.91;;;12.88;57.66
56038;BME280;41907;47.848;9.000;2023-04-07T10:51:31;95541.69;;;12.81;57.03
56038;BME280;41907;47.848;9.000;2023-04-07T10:59:26;95533.78;;;13.05;55.90
56038;BME280;41907;47.848;9.000;2023-04-07T11:02:16;95531.34;;;13.33;54.61
56038;BME280;41907;47.848;9.000;2023-04-07T11:04:42;95540.31;;;13.37;54.24
56038;BME280;41907;47.848;9.000;2023-04-07T11:07:08;95535.59;;;13.34;53.29
56038;BME280;41907;47.848;9.000;2023-04-07T11:09:33;95538.28;;;13.13;53.25
56038;BME280;41907;47.848;9.000;2023-04-07T11:11:58;95537.72;;;13.28;54.72
56038;BME280;41907;47.848;9.000;2023-04-07T11:14:24;95533.84;;;13.38;53.86
56038;BME280;41907;47.848;9.000;2023-04-07T11:16:51;95539.19;;;13.38;53.22
56038;BME280;41907;47.848;9.000;2023-04-07T11:19:16;95543.19;;;13.32;53.92
56038;BME280;41907;47.848;9.000;2023-04-07T11:21:41;95536.31;;;13.43;54.74
56038;BME280;41907;47.848;9.000;2023-04-07T11:24:07;95532.06;;;13.75;54.65
56038;BME280;41907;47.848;9.000;2023-04-07T11:26:39;95533.41;;;13.93;53.95
56038;BME280;41907;47.848;9.000;2023-04-07T11:29:04;95535.66;;;13.46;53.12
56038;BME280;41907;47.848;9.000;2023-04-07T11:31:30;95537.38;;;13.30;54.41
56038;BME280;41907;47.848;9.000;2023-04-07T11:34:04;95528.72;;;13.45;53.38
56038;BME280;41907;47.848;9.000;2023-04-07T11:36:31;95532.88;;;13.22;53.57
56038;BME280;41907;47.848;9.000;2023-04-07T11:38:57;95536.06;;;12.94;53.29
56038;BME280;41907;47.848;9.000;2023-04-07T11:41:23;95539.09;;;13.14;54.59
56038;BME280;41907;47.848;9.000;2023-04-07T11:44:01;95540.75;;;13.72;53.13
56038;BME280;41907;47.848;9.000;2023-04-07T11:46:27;95539.22;;;14.07;50.21
56038;BME280;41907;47.848;9.000;2023-04-07T11:48:52;95530.28;;;14.15;49.01
56038;BME280;41907;47.848;9.000;2023-04-07T11:51:18;95540.25;;;14.27;51.16
56038;BME280;41907;47.848;9.000;2023-04-07T11:53:44;95545.28;;;14.04;50.88
56038;BME280;41907;47.848;9.000;2023-04-07T11:56:11;95544.41;;;14.12;50.11
56038;BME280;41907;47.848;9.000;2023-04-07T11:58:50;95540.97;;;13.79;49.97
56038;BME280;41907;47.848;9.000;2023-04-07T12:01:15;95546.50;;;13.95;51.57
56038;BME280;41907;47.848;9.000;2023-04-07T12:03:54;95552.00;;;13.32;51.23
56038;BME280;41907;47.848;9.000;2023-04-07T12:06:29;95547.34;;;13.74;50.90
56038;BME280;41907;47.848;9.000;2023-04-07T12:08:55;95544.63;;;14.20;49.41
56038;BME280;41907;47.848;9.000;2023-04-07T12:11:21;95543.16;;;14.10;50.90
56038;BME280;41907;47.848;9.000;2023-04-07T12:13:46;95546.06;;;14.17;48.97
56038;BME280;41907;47.848;9.000;2023-04-07T12:16:11;95544.44;;;14.49;48.67
56038;BME280;41907;47.848;9.000;2023-04-07T12:18:37;95548.09;;;14.69;48.82
56038;BME280;41907;47.848;9.000;2023-04-07T12:21:02;95550.97;;;15.00;49.24
56038;BME280;41907;47.848;9.000;2023-04-07T12:23:27;95544.03;;;14.87;49.19
56038;BME280;41907;47.848;9.000;2023-04-07T12:25:53;95549.94;;;14.93;50.94
56038;BME280;41907;47.848;9.000;2023-04-07T12:28:18;95548.97;;;14.85;50.69
56038;BME280;41907;47.848;9.000;2023-04-07T12:30:43;95555.69;;;14.79;52.33
56038;BME280;41907;47.848;9.000;2023-04-07T12:33:08;95551.91;;;14.68;50.61
56038;BME280;41907;47.848;9.000;2023-04-07T12:35:33;95552.47;;;14.49;51.04
56038;BME280;41907;47.848;9.000;2023-04-07T12:37:59;95539.81;;;14.74;50.62
56038;BME280;41907;47.848;9.000;2023-04-07T12:40:24;95548.56;;;14.59;50.19
56038;BME280;41907;47.848;9.000;2023-04-07T12:42:50;95549.56;;;14.54;51.49
56038;BME280;41907;47.848;9.000;2023-04-07T12:45:15;95546.66;;;14.59;50.78
56038;BME280;41907;47.848;9.000;2023-04-07T12:47:41;95546.84;;;14.78;50.77
56038;BME280;41907;47.848;9.000;2023-04-07T12:50:06;95550.31;;;14.79;51.42
56038;BME280;41907;47.848;9.000;2023-04-07T12:52:32;95548.09;;;14.69;49.93
56038;BME280;41907;47.848;9.000;2023-04-07T12:54:57;95543.41;;;14.66;50.22
56038;BME280;41907;47.848;9.000;2023-04-07T12:57:23;95545.41;;;14.44;50.42
56038;BME280;41907;47.848;9.000;2023-04-07T12:59:48;95539.97;;;14.53;50.35
56038;BME280;41907;47.848;9.000;2023-04-07T13:02:14;95551.91;;;14.56;50.12
56038;BME280;41907;47.848;9.000;2023-04-07T13:04:42;95549.97;;;14.07;50.75
56038;BME280;41907;47.848;9.000;2023-04-07T13:07:10;95550.81;;;13.75;53.25
56038;BME280;41907;47.848;9.000;2023-04-07T13:09:36;95547.22;;;13.71;54.45
56038;BME280;41907;47.848;9.000;2023-04-07T13:12:01;95545.91;;;13.77;54.23
56038;BME280;41907;47.848;9.000;2023-04-07T13:14:26;95559.13;;;13.61;54.56